createdAt,value
2023-03-28T00:02:15.809Z,96.71
2023-03-28T00:04:42.368Z,95.98
2023-03-28T00:07:09.031Z,95.35
2023-03-28T00:09:36.830Z,95.22
2023-03-28T00:12:03.493Z,94.59
2023-03-28T00:14:29.969Z,94.27
2023-03-28T00:16:57.214Z,94.19
2023-03-28T00:19:23.709Z,91.61
2023-03-28T00:21:51.188Z,92.20
2023-03-28T00:24:21.262Z,92.87
2023-03-28T00:26:54.169Z,93.33
2023-03-28T00:29:22.397Z,92.96
2023-03-28T00:31:50.252Z,92.29
2023-03-28T00:34:17.315Z,90.57
2023-03-28T00:36:43.792Z,89.74
2023-03-28T00:39:10.922Z,88.97
2023-03-28T00:41:42.823Z,88.56
2023-03-28T00:44:45.022Z,89.24
2023-03-28T00:47:55.454Z,89.69
2023-03-28T00:50:40.936Z,90.60
2023-03-28T00:53:13.777Z,91.68
2023-03-28T00:55:42.645Z,94.79
2023-03-28T00:58:18.226Z,96.55
2023-03-28T01:00:49.081Z,97.07
2023-03-28T01:03:18.796Z,96.59
2023-03-28T01:05:47.900Z,94.62
2023-03-28T01:08:20.661Z,93.23
2023-03-28T01:10:47.956Z,93.94
2023-03-28T01:13:19.865Z,94.63
2023-03-28T01:15:49.739Z,95.59
2023-03-28T01:18:18.541Z,94.91
2023-03-28T01:20:58.417Z,94.47
2023-03-28T01:23:43.709Z,94.03
2023-03-28T01:26:32.855Z,91.46
2023-03-28T01:29:37.245Z,90.83
2023-03-28T01:32:03.679Z,93.46
2023-03-28T01:34:48.537Z,95.97
2023-03-28T01:37:46.130Z,97.02
2023-03-28T01:40:38.501Z,97.65
2023-03-28T01:43:26.539Z,98.24
2023-03-28T01:46:22.037Z,98.95
2023-03-28T01:48:59.794Z,99.67
2023-03-28T01:51:44.840Z,100.00
2023-03-28T01:54:30.346Z,100.00
2023-03-28T01:57:05.961Z,100.00
2023-03-28T01:59:39.137Z,99.67
2023-03-28T02:02:15.883Z,99.13
2023-03-28T02:04:45.276Z,99.50
2023-03-28T02:07:16.005Z,99.38
2023-03-28T02:09:47.792Z,97.61
2023-03-28T02:12:25.974Z,95.31
2023-03-28T02:14:56.280Z,94.20
2023-03-28T02:17:26.358Z,97.74
2023-03-28T02:19:59.328Z,99.72
2023-03-28T02:22:35.365Z,99.34
2023-03-28T02:25:02.333Z,96.51
2023-03-28T02:27:28.852Z,96.80
2023-03-28T02:29:55.571Z,97.62
2023-03-28T02:32:23.748Z,99.05
2023-03-28T02:34:53.524Z,99.33
2023-03-28T02:37:54.216Z,97.34
2023-03-28T02:40:46.710Z,97.22
2023-03-28T02:43:34.801Z,95.45
2023-03-28T02:46:12.211Z,94.44
2023-03-28T02:48:47.671Z,95.27
2023-03-28T02:51:20.185Z,95.24
2023-03-28T02:54:08.571Z,96.04
2023-03-28T02:56:46.481Z,95.13
2023-03-28T02:59:26.123Z,97.34
2023-03-28T03:01:53.156Z,98.26
2023-03-28T03:04:19.773Z,96.55
2023-03-28T03:06:48.488Z,95.12
2023-03-28T03:09:17.796Z,93.80
2023-03-28T03:11:44.933Z,95.13
2023-03-28T03:14:12.209Z,95.65
2023-03-28T03:16:38.787Z,97.16
2023-03-28T03:19:05.623Z,97.71
2023-03-28T03:21:32.104Z,97.79
2023-03-28T03:23:58.597Z,97.04
2023-03-28T03:26:25.076Z,95.76
2023-03-28T03:28:51.492Z,96.62
2023-03-28T03:31:21.515Z,96.60
2023-03-28T03:33:51.236Z,95.85
2023-03-28T03:36:20.552Z,96.04
2023-03-28T03:38:48.693Z,93.95
2023-03-28T03:41:15.380Z,93.97
2023-03-28T03:43:41.970Z,94.38
2023-03-28T03:46:08.545Z,96.08
2023-03-28T03:48:35.314Z,96.69
2023-03-28T03:51:01.976Z,96.10
2023-03-28T03:53:28.476Z,96.71
2023-03-28T03:56:00.150Z,97.82
2023-03-28T03:58:26.880Z,97.09
2023-03-28T04:00:53.437Z,95.74
2023-03-28T04:03:24.519Z,93.63
2023-03-28T04:05:52.858Z,94.80
2023-03-28T04:08:22.462Z,94.83
2023-03-28T04:10:50.864Z,93.98
2023-03-28T04:13:17.302Z,93.83
2023-03-28T04:15:46.423Z,93.91
2023-03-28T04:18:15.362Z,92.98
2023-03-28T04:20:43.407Z,93.26
2023-03-28T04:23:10.189Z,93.96
2023-03-28T04:25:36.898Z,95.07
2023-03-28T04:28:03.611Z,93.95
2023-03-28T04:30:30.410Z,94.51
2023-03-28T04:32:59.126Z,95.72
2023-03-28T04:35:25.687Z,96.79
2023-03-28T04:37:53.623Z,96.39
2023-03-28T04:40:22.012Z,97.57
2023-03-28T04:42:48.562Z,98.28
2023-03-28T04:45:17.693Z,99.84
2023-03-28T04:47:55.693Z,99.90
2023-03-28T04:50:23.212Z,100.00
2023-03-28T04:52:51.736Z,100.00
2023-03-28T04:55:18.309Z,99.47
2023-03-28T04:57:44.767Z,100.00
2023-03-28T05:00:16.932Z,100.00
2023-03-28T05:02:43.795Z,100.00
2023-03-28T05:05:10.379Z,100.00
2023-03-28T05:07:37.009Z,100.00
2023-03-28T05:10:04.301Z,100.00
2023-03-28T05:12:30.947Z,100.00
2023-03-28T05:14:57.438Z,100.00
2023-03-28T05:17:24.741Z,100.00
2023-03-28T05:19:54.087Z,100.00
2023-03-28T05:22:23.745Z,100.00
2023-03-28T05:24:54.069Z,100.00
2023-03-28T05:27:21.827Z,100.00
2023-03-28T05:29:50.248Z,100.00
2023-03-28T05:32:16.795Z,100.00
2023-03-28T05:34:43.347Z,100.00
2023-03-28T05:37:09.893Z,100.00
2023-03-28T05:39:36.304Z,100.00
2023-03-28T05:42:02.825Z,99.92
2023-03-28T05:44:29.310Z,98.91
2023-03-28T05:46:55.844Z,98.26
2023-03-28T05:49:22.545Z,98.19
2023-03-28T05:51:51.564Z,97.38
2023-03-28T05:54:18.288Z,99.14
2023-03-28T05:56:44.807Z,99.38
2023-03-28T05:59:11.732Z,98.83
2023-03-28T06:01:40.135Z,98.40
2023-03-28T06:04:08.809Z,97.04
2023-03-28T06:06:35.365Z,96.43
2023-03-28T06:09:01.875Z,96.19
2023-03-28T06:11:28.386Z,95.99
2023-03-28T06:13:54.911Z,96.56
2023-03-28T06:16:30.496Z,95.56
2023-03-28T06:19:10.342Z,95.99
2023-03-28T06:21:43.509Z,95.02
2023-03-28T06:24:11.178Z,93.56
2023-03-28T06:26:37.772Z,92.00
2023-03-28T06:29:06.025Z,92.52
2023-03-28T06:31:32.930Z,92.88
2023-03-28T06:33:59.406Z,92.17
2023-03-28T06:36:26.177Z,93.01
2023-03-28T06:38:53.571Z,92.35
2023-03-28T06:41:23.911Z,92.04
2023-03-28T06:43:55.778Z,91.95
2023-03-28T06:46:22.277Z,91.83
2023-03-28T06:48:51.840Z,90.42
2023-03-28T06:51:18.291Z,90.11
2023-03-28T06:53:44.822Z,89.91
2023-03-28T06:56:12.288Z,89.38
2023-03-28T06:58:39.346Z,88.61
2023-03-28T07:01:06.377Z,86.69
2023-03-28T07:03:32.969Z,88.00
2023-03-28T07:06:04.690Z,88.77
2023-03-28T07:08:31.119Z,88.82
2023-03-28T07:10:57.737Z,88.30
2023-03-28T07:13:24.351Z,87.67
2023-03-28T07:16:05.207Z,87.96
2023-03-28T07:18:32.583Z,87.42
2023-03-28T07:21:03.927Z,85.99
2023-03-28T07:23:31.424Z,86.53
2023-03-28T07:25:58.112Z,85.67
2023-03-28T07:28:24.783Z,87.02
2023-03-28T07:30:54.962Z,85.40
2023-03-28T07:33:30.859Z,83.80
2023-03-28T07:36:14.845Z,79.67
2023-03-28T07:38:42.032Z,78.55
2023-03-28T07:41:09.090Z,76.33
2023-03-28T07:43:36.057Z,74.74
2023-03-28T07:46:11.591Z,73.29
2023-03-28T07:48:38.589Z,72.01
2023-03-28T07:51:06.430Z,69.50
2023-03-28T07:53:34.537Z,69.00
2023-03-28T07:56:01.455Z,67.76
2023-03-28T07:58:27.914Z,66.02
2023-03-28T08:00:54.842Z,64.28
2023-03-28T08:03:24.569Z,65.48
2023-03-28T08:05:52.095Z,63.29
2023-03-28T08:08:23.495Z,65.72
2023-03-28T08:10:54.432Z,65.34
2023-03-28T08:13:24.577Z,64.10
2023-03-28T08:15:57.782Z,62.33
2023-03-28T08:18:26.293Z,60.23
2023-03-28T08:20:59.682Z,59.01
2023-03-28T08:23:27.158Z,58.56
2023-03-28T08:26:04.812Z,57.16
2023-03-28T08:28:36.211Z,53.63
2023-03-28T08:31:09.723Z,54.51
2023-03-28T08:33:36.961Z,51.16
2023-03-28T08:36:03.960Z,50.33
2023-03-28T08:38:30.924Z,50.67
2023-03-28T08:41:03.404Z,49.83
2023-03-28T08:43:51.661Z,47.40
2023-03-28T08:46:21.992Z,44.73
2023-03-28T08:48:53.221Z,44.10
2023-03-28T08:51:30.730Z,44.23
2023-03-28T08:54:13.028Z,41.70
2023-03-28T08:56:47.029Z,42.39
2023-03-28T08:59:17.687Z,40.94
2023-03-28T09:01:44.848Z,39.92
2023-03-28T09:04:36.737Z,39.71
2023-03-28T09:07:26.533Z,39.59
2023-03-28T09:10:12.271Z,40.49
2023-03-28T09:13:03.279Z,40.85
2023-03-28T09:15:32.554Z,40.75
2023-03-28T09:18:32.398Z,41.27
2023-03-28T09:21:10.812Z,42.43
2023-03-28T09:23:52.186Z,43.35
2023-03-28T09:26:34.809Z,44.32
2023-03-28T09:29:13.760Z,44.17
2023-03-28T09:31:45.737Z,44.72
2023-03-28T09:34:28.950Z,46.80
2023-03-28T09:37:02.435Z,47.68
2023-03-28T09:39:40.327Z,48.28
2023-03-28T09:42:16.200Z,48.49
2023-03-28T09:44:54.567Z,50.29
2023-03-28T09:47:22.403Z,50.22
2023-03-28T09:49:59.443Z,49.35
2023-03-28T09:52:36.324Z,49.87
2023-03-28T09:55:02.837Z,49.76
2023-03-28T09:58:08.583Z,49.89
2023-03-28T10:00:38.044Z,48.56
2023-03-28T10:03:06.197Z,47.92
2023-03-28T10:05:35.571Z,43.80
2023-03-28T10:08:22.335Z,42.86
2023-03-28T10:10:56.961Z,45.70
2023-03-28T10:13:23.977Z,44.94
2023-03-28T10:15:57.794Z,43.02
2023-03-28T10:18:29.660Z,40.78
2023-03-28T10:20:56.581Z,37.84
2023-03-28T10:23:24.918Z,37.25
2023-03-28T10:25:54.456Z,35.10
2023-03-28T10:28:31.019Z,35.43
2023-03-28T10:31:01.638Z,34.93
2023-03-28T10:33:33.036Z,34.69
2023-03-28T10:36:03.028Z,34.12
2023-03-28T10:38:45.260Z,35.40
2023-03-28T10:41:22.288Z,35.79
2023-03-28T10:43:51.881Z,36.95
2023-03-28T10:46:30.752Z,37.81
2023-03-28T10:49:13.635Z,36.81
2023-03-28T10:51:44.324Z,37.64
2023-03-28T10:54:29.961Z,36.84
2023-03-28T10:57:26.048Z,37.00
2023-03-28T11:00:16.026Z,39.67
2023-03-28T11:02:45.222Z,37.14
2023-03-28T11:05:28.715Z,36.07
2023-03-28T11:08:33.388Z,35.90
2023-03-28T11:11:42.243Z,32.69
2023-03-28T11:14:17.967Z,35.92
2023-03-28T11:16:44.470Z,36.16
2023-03-28T11:19:30.213Z,34.59
2023-03-28T11:22:03.352Z,36.11
2023-03-28T11:25:01.812Z,35.81
2023-03-28T11:27:42.120Z,35.85
2023-03-28T11:30:24.210Z,35.24
2023-03-28T11:33:05.632Z,35.93
2023-03-28T11:35:39.148Z,34.19
2023-03-28T11:38:15.698Z,33.75
2023-03-28T11:41:13.260Z,34.79
2023-03-28T11:43:58.898Z,33.55
2023-03-28T11:46:33.032Z,35.08
2023-03-28T11:49:21.622Z,32.43
2023-03-28T11:52:12.775Z,32.33
2023-03-28T11:54:45.548Z,32.89
2023-03-28T11:57:29.006Z,34.70
2023-03-28T12:00:06.993Z,33.29
2023-03-28T12:02:54.317Z,31.74
2023-03-28T12:05:32.968Z,31.96
2023-03-28T12:08:08.275Z,32.30
2023-03-28T12:10:37.002Z,32.80
2023-03-28T12:13:11.078Z,35.58
2023-03-28T12:15:43.926Z,35.65
2023-03-28T12:18:52.212Z,32.37
2023-03-28T12:21:34.425Z,31.07
2023-03-28T12:24:16.055Z,32.09
2023-03-28T12:27:00.948Z,31.68
2023-03-28T12:29:34.818Z,30.68
2023-03-28T12:32:06.958Z,30.74
2023-03-28T12:34:41.717Z,30.08
2023-03-28T12:37:19.713Z,31.79
2023-03-28T12:39:55.849Z,32.35
2023-03-28T12:42:27.635Z,32.70
2023-03-28T12:45:09.682Z,31.78
2023-03-28T12:47:42.784Z,27.57
2023-03-28T12:50:12.148Z,29.33
2023-03-28T12:52:41.986Z,29.99
2023-03-28T12:55:28.796Z,28.49
2023-03-28T12:58:13.444Z,28.80
2023-03-28T13:00:49.253Z,28.14
2023-03-28T13:03:30.920Z,30.69
2023-03-28T13:06:22.169Z,31.59
2023-03-28T13:09:05.632Z,29.96
2023-03-28T13:11:58.114Z,30.98
2023-03-28T13:14:39.419Z,29.72
2023-03-28T13:17:23.438Z,32.73
2023-03-28T13:20:12.711Z,33.43
2023-03-28T13:22:42.254Z,32.69
2023-03-28T13:25:42.772Z,30.56
2023-03-28T13:28:12.067Z,30.44
2023-03-28T13:31:02.085Z,30.41
2023-03-28T13:33:32.501Z,29.90
2023-03-28T13:35:58.996Z,30.48
2023-03-28T13:38:28.619Z,30.12
2023-03-28T13:41:02.027Z,27.42
2023-03-28T13:43:58.892Z,26.78
2023-03-28T13:46:25.789Z,25.90
2023-03-28T13:49:00.957Z,25.55
2023-03-28T13:51:33.834Z,26.82
2023-03-28T13:54:00.600Z,26.29
2023-03-28T13:56:32.623Z,26.45
2023-03-28T13:59:00.603Z,26.86
2023-03-28T14:01:42.094Z,27.05
2023-03-28T14:04:32.270Z,25.36
2023-03-28T14:07:00.169Z,25.84
2023-03-28T14:09:26.602Z,26.04
2023-03-28T14:12:08.667Z,27.03
2023-03-28T14:14:39.906Z,24.89
2023-03-28T14:17:11.629Z,25.89
2023-03-28T14:19:41.780Z,25.79
2023-03-28T14:22:15.711Z,25.01
2023-03-28T14:24:43.328Z,25.40
2023-03-28T14:27:15.108Z,27.45
2023-03-28T14:29:54.384Z,26.73
2023-03-28T14:32:32.952Z,23.71
2023-03-28T14:35:30.740Z,25.71
2023-03-28T14:38:00.927Z,26.03
2023-03-28T14:40:29.800Z,27.05
2023-03-28T14:43:05.373Z,27.68
2023-03-28T14:45:37.824Z,28.43
2023-03-28T14:48:08.718Z,27.30
2023-03-28T14:50:39.611Z,24.56
2023-03-28T14:53:12.744Z,23.33
2023-03-28T14:55:41.849Z,23.86
2023-03-28T14:58:13.238Z,23.36
2023-03-28T15:00:48.021Z,24.79
2023-03-28T15:03:17.735Z,24.57
2023-03-28T15:05:47.325Z,25.66
2023-03-28T15:08:34.581Z,27.82
2023-03-28T15:11:05.770Z,28.10
2023-03-28T15:13:41.062Z,27.27
2023-03-28T15:16:09.084Z,27.71
2023-03-28T15:18:47.360Z,25.94
2023-03-28T15:21:15.019Z,24.91
2023-03-28T15:23:49.233Z,23.41
2023-03-28T15:26:43.483Z,24.83
2023-03-28T15:29:14.876Z,25.06
2023-03-28T15:31:41.582Z,26.14
2023-03-28T15:34:18.536Z,25.07
2023-03-28T15:36:57.730Z,24.97
2023-03-28T15:39:34.369Z,24.05
2023-03-28T15:42:20.811Z,24.88
2023-03-28T15:44:59.248Z,26.43
2023-03-28T15:47:31.476Z,27.13
2023-03-28T15:50:06.293Z,28.78
2023-03-28T15:52:34.397Z,29.71
2023-03-28T15:55:02.388Z,29.35
2023-03-28T15:57:30.602Z,29.24
2023-03-28T15:59:58.407Z,28.79
2023-03-28T16:02:28.122Z,30.37
2023-03-28T16:05:01.628Z,30.53
2023-03-28T16:07:49.050Z,30.52
2023-03-28T16:10:20.640Z,30.42
2023-03-28T16:12:47.564Z,31.78
2023-03-28T16:15:14.628Z,32.22
2023-03-28T16:17:43.194Z,30.35
2023-03-28T16:20:23.959Z,31.71
2023-03-28T16:22:50.770Z,32.79
2023-03-28T16:25:17.347Z,31.71
2023-03-28T16:27:44.060Z,32.79
2023-03-28T16:30:24.765Z,32.02
2023-03-28T16:32:52.942Z,32.09
2023-03-28T16:35:20.228Z,33.83
2023-03-28T16:37:47.386Z,35.55
2023-03-28T16:40:15.598Z,37.27
2023-03-28T16:42:42.098Z,38.52
2023-03-28T16:45:11.467Z,39.42
2023-03-28T16:47:38.914Z,39.61
2023-03-28T16:50:08.721Z,41.42
2023-03-28T16:52:40.214Z,40.27
2023-03-28T16:55:14.250Z,40.59
2023-03-28T16:57:41.612Z,40.54
2023-03-28T17:00:17.756Z,40.70
2023-03-28T17:02:46.066Z,40.35
2023-03-28T17:05:13.135Z,40.88
2023-03-28T17:07:39.652Z,41.31
2023-03-28T17:10:06.777Z,41.66
2023-03-28T17:12:34.191Z,41.76
2023-03-28T17:15:00.784Z,42.08
2023-03-28T17:17:27.409Z,42.97
2023-03-28T17:19:57.080Z,43.68
2023-03-28T17:22:27.161Z,44.62
2023-03-28T17:25:00.165Z,45.09
2023-03-28T17:27:26.739Z,44.83
2023-03-28T17:29:59.261Z,45.35
2023-03-28T17:32:26.012Z,46.69
2023-03-28T17:34:52.996Z,47.32
2023-03-28T17:37:24.417Z,47.89
2023-03-28T17:39:51.326Z,48.32
2023-03-28T17:42:18.300Z,48.30
2023-03-28T17:44:44.753Z,49.28
2023-03-28T17:47:11.627Z,50.08
2023-03-28T17:50:38.299Z,50.65
2023-03-28T17:53:06.767Z,50.25
2023-03-28T17:55:34.002Z,50.43
2023-03-28T17:58:01.169Z,50.28
2023-03-28T18:00:30.172Z,51.58
2023-03-28T18:03:01.588Z,52.24
2023-03-28T18:05:28.590Z,51.97
2023-03-28T18:07:58.153Z,52.81
2023-03-28T18:10:27.787Z,53.30
2023-03-28T18:12:55.827Z,54.16
2023-03-28T18:15:22.341Z,54.84
2023-03-28T18:17:53.506Z,56.07
2023-03-28T18:20:22.989Z,56.97
2023-03-28T18:22:51.526Z,57.07
2023-03-28T18:25:18.121Z,56.39
2023-03-28T18:27:44.738Z,56.76
2023-03-28T18:30:11.834Z,56.17
2023-03-28T18:32:39.829Z,56.09
2023-03-28T18:35:10.182Z,55.79
2023-03-28T18:37:40.246Z,55.75
2023-03-28T18:40:07.969Z,55.18
2023-03-28T18:42:37.162Z,55.48
2023-03-28T18:45:04.368Z,55.44
2023-03-28T18:47:31.013Z,56.29
2023-03-28T18:49:58.493Z,56.18
2023-03-28T18:52:29.836Z,54.98
2023-03-28T18:54:59.549Z,55.76
2023-03-28T18:57:28.580Z,56.00
2023-03-28T18:59:58.631Z,55.91
2023-03-28T19:02:28.999Z,56.47
2023-03-28T19:04:56.908Z,57.05
2023-03-28T19:07:23.433Z,56.85
2023-03-28T19:09:50.105Z,56.88
2023-03-28T19:12:17.013Z,57.22
2023-03-28T19:14:43.489Z,57.12
2023-03-28T19:17:09.963Z,57.20
2023-03-28T19:19:38.722Z,57.05
2023-03-28T19:22:06.308Z,56.60
2023-03-28T19:24:33.244Z,56.44
2023-03-28T19:27:01.413Z,57.23
2023-03-28T19:29:30.067Z,58.57
2023-03-28T19:31:59.289Z,58.88
2023-03-28T19:34:27.986Z,58.49
2023-03-28T19:36:54.462Z,59.79
2023-03-28T19:39:21.106Z,61.54
2023-03-28T19:41:47.607Z,61.91
2023-03-28T19:44:14.081Z,58.80
2023-03-28T19:46:40.664Z,59.15
2023-03-28T19:49:07.143Z,58.70
2023-03-28T19:51:34.302Z,58.26
2023-03-28T19:54:01.162Z,57.48
2023-03-28T19:56:30.944Z,56.80
2023-03-28T19:58:57.567Z,55.85
2023-03-28T20:01:24.158Z,55.60
2023-03-28T20:03:53.107Z,55.04
2023-03-28T20:06:21.766Z,55.29
2023-03-28T20:08:48.679Z,55.13
2023-03-28T20:11:16.080Z,55.04
2023-03-28T20:13:43.480Z,54.86
2023-03-28T20:16:11.885Z,55.07
2023-03-28T20:18:39.363Z,56.05
2023-03-28T20:21:09.045Z,56.59
2023-03-28T20:23:36.023Z,56.83
2023-03-28T20:26:23.196Z,57.03
2023-03-28T20:28:57.333Z,57.73
2023-03-28T20:31:23.963Z,56.68
2023-03-28T20:33:52.679Z,54.79
2023-03-28T20:36:19.203Z,54.64
2023-03-28T20:38:45.798Z,55.48
2023-03-28T20:41:17.662Z,56.18
2023-03-28T20:43:47.089Z,55.95
2023-03-28T20:46:18.482Z,57.04
2023-03-28T20:48:46.506Z,55.05
2023-03-28T20:51:16.974Z,56.17
2023-03-28T20:53:49.608Z,57.70
2023-03-28T20:56:18.890Z,58.90
2023-03-28T20:58:45.997Z,59.61
2023-03-28T21:01:14.131Z,59.82
2023-03-28T21:03:50.239Z,60.59
2023-03-28T21:06:22.405Z,58.97
2023-03-28T21:08:50.889Z,57.62
2023-03-28T21:11:19.711Z,57.17
2023-03-28T21:13:46.191Z,57.62
2023-03-28T21:16:14.399Z,57.51
2023-03-28T21:18:41.272Z,57.05
2023-03-28T21:21:09.051Z,58.42
2023-03-28T21:23:39.393Z,59.16
2023-03-28T21:26:21.252Z,60.28
2023-03-28T21:28:48.843Z,60.06
2023-03-28T21:31:19.827Z,59.80
2023-03-28T21:33:49.678Z,59.38
2023-03-28T21:36:20.159Z,58.93
2023-03-28T21:38:47.371Z,59.58
2023-03-28T21:41:14.455Z,59.57
2023-03-28T21:43:41.085Z,58.82
2023-03-28T21:46:08.871Z,56.38
2023-03-28T21:48:36.832Z,55.64
2023-03-28T21:51:04.633Z,54.78
2023-03-28T21:53:36.896Z,52.39
2023-03-28T21:56:04.830Z,51.57
2023-03-28T21:58:33.379Z,51.38
2023-03-28T22:01:04.821Z,52.50
2023-03-28T22:03:37.823Z,52.49
2023-03-28T22:06:05.005Z,50.95
2023-03-28T22:08:34.390Z,48.72
2023-03-28T22:11:05.722Z,48.93
2023-03-28T22:13:34.989Z,49.45
2023-03-28T22:16:03.035Z,49.70
2023-03-28T22:18:33.548Z,49.79
2023-03-28T22:21:04.968Z,49.25
2023-03-28T22:23:32.857Z,49.03
2023-03-28T22:25:59.373Z,49.33
2023-03-28T22:28:26.075Z,49.09
2023-03-28T22:30:56.692Z,48.99
2023-03-28T22:33:25.033Z,48.60
2023-03-28T22:35:51.837Z,48.33
2023-03-28T22:38:19.500Z,47.49
2023-03-28T22:40:46.429Z,47.29
2023-03-28T22:43:12.858Z,47.74
2023-03-28T22:45:39.315Z,46.27
2023-03-28T22:48:14.153Z,46.28
2023-03-28T22:50:42.037Z,45.89
2023-03-28T22:53:09.937Z,46.43
2023-03-28T22:55:36.797Z,46.44
2023-03-28T22:58:05.085Z,46.09
2023-03-28T23:00:31.763Z,46.46
2023-03-28T23:02:58.264Z,45.86
2023-03-28T23:05:24.882Z,45.85
2023-03-28T23:07:52.777Z,46.19
2023-03-28T23:10:19.849Z,45.59
2023-03-28T23:12:47.385Z,45.13
2023-03-28T23:15:14.643Z,44.25
2023-03-28T23:17:42.700Z,43.79
2023-03-28T23:20:12.466Z,44.03
2023-03-28T23:22:42.640Z,43.19
2023-03-28T23:25:12.336Z,43.68
2023-03-28T23:27:39.625Z,43.21
2023-03-28T23:30:12.329Z,42.89
2023-03-28T23:32:39.425Z,43.15
2023-03-28T23:35:10.477Z,42.48
2023-03-28T23:37:40.076Z,41.83
2023-03-28T23:40:14.495Z,40.80
2023-03-28T23:42:44.019Z,41.36
2023-03-28T23:45:12.584Z,41.17
2023-03-28T23:47:39.138Z,41.33
2023-03-28T23:50:10.244Z,41.50
2023-03-28T23:52:39.973Z,41.24
2023-03-28T23:55:08.501Z,40.72
2023-03-28T23:57:37.249Z,40.10
